sensor_id;sensor_type;location;lat;lon;timestamp;P1;P2;P0
86041;PMS7003;76639;53.064;18.818;2024-02-23T09:40:54;0;0;0
86041;PMS7003;76639;53.064;18.818;2024-02-23T09:44:07;0;0;0
86041;PMS7003;76639;53.064;18.818;2024-02-23T09:47:23;0;0;0
86041;PMS7003;76639;53.064;18.818;2024-02-23T09:50:37;0;0;0
86041;PMS7003;76639;53.064;18.818;2024-02-23T09:54:03;0;0;0
86041;PMS7003;76639;53.064;18.818;2024-02-23T09:57:16;0;0;0
86041;PMS7003;76639;53.064;18.818;2024-02-23T10:00:31;3;0;0
86041;PMS7003;76639;53.064;18.818;2024-02-23T10:03:46;0;0;0
86041;PMS7003;76639;53.064;18.818;2024-02-23T10:07:01;0;0;0
86041;PMS7003;76639;53.064;18.818;2024-02-23T10:10:13;0;0;0
86041;PMS7003;76639;53.064;18.818;2024-02-23T10:13:29;0;0;0
86041;PMS7003;76639;53.064;18.818;2024-02-23T10:16:53;1;0;0
86041;PMS7003;76639;53.064;18.818;2024-02-23T10:20:06;0;0;0
86041;PMS7003;76639;53.064;18.818;2024-02-23T10:23:20;1;0;0
86041;PMS7003;76639;53.064;18.818;2024-02-23T10:26:33;2;0;0
86041;PMS7003;76639;53.064;18.818;2024-02-23T10:29:48;0;0;0
86041;PMS7003;76639;53.064;18.818;2024-02-23T10:33:03;0;0;0
86041;PMS7003;76639;53.064;18.818;2024-02-23T10:36:19;0;0;0
86041;PMS7003;76639;53.064;18.818;2024-02-23T10:39:43;0;0;0
86041;PMS7003;76639;53.064;18.818;2024-02-23T10:42:56;0;0;0
86041;PMS7003;76639;53.064;18.818;2024-02-23T10:46:11;0;0;0
86041;PMS7003;76639;53.064;18.818;2024-02-23T10:49:24;0;0;0
86041;PMS7003;76639;53.064;18.818;2024-02-23T10:52:38;2;0;0
86041;PMS7003;76639;53.064;18.818;2024-02-23T10:55:56;1;0;0
86041;PMS7003;76639;53.064;18.818;2024-02-23T10:59:10;0;0;0
86041;PMS7003;76639;53.064;18.818;2024-02-23T11:02:33;0;0;0
86041;PMS7003;76639;53.064;18.818;2024-02-23T11:05:53;0;0;0
86041;PMS7003;76639;53.064;18.818;2024-02-23T11:09:12;0;0;0
86041;PMS7003;76639;53.064;18.818;2024-02-23T11:12:39;0;0;0
86041;PMS7003;76639;53.064;18.818;2024-02-23T11:15:46;1;0;0
86041;PMS7003;76639;53.064;18.818;2024-02-23T11:25:41;1;0;0
86041;PMS7003;76639;53.064;18.818;2024-02-23T11:29:20;0;0;0
86041;PMS7003;76639;53.064;18.818;2024-02-23T11:32:22;0;0;0
86041;PMS7003;76639;53.064;18.818;2024-02-23T11:35:38;0;0;0
86041;PMS7003;76639;53.064;18.818;2024-02-23T11:39:01;0;0;0
86041;PMS7003;76639;53.064;18.818;2024-02-23T11:42:18;0;0;0
86041;PMS7003;76639;53.064;18.818;2024-02-23T11:45:34;0;0;0
86041;PMS7003;76639;53.064;18.818;2024-02-23T11:48:46;0;0;0
86041;PMS7003;76639;53.064;18.818;2024-02-23T11:52:03;0;0;0
86041;PMS7003;76639;53.064;18.818;2024-02-23T11:55:26;0;0;0
86041;PMS7003;76639;53.064;18.818;2024-02-23T11:58:39;2;0;0
86041;PMS7003;76639;53.064;18.818;2024-02-23T12:01:52;1;1;1
86041;PMS7003;76639;53.064;18.818;2024-02-23T12:05:05;0;0;0
86041;PMS7003;76639;53.064;18.818;2024-02-23T12:08:18;0;0;0
86041;PMS7003;76639;53.064;18.818;2024-02-23T12:11:32;0;0;0
86041;PMS7003;76639;53.064;18.818;2024-02-23T12:14:44;0;0;0
86041;PMS7003;76639;53.064;18.818;2024-02-23T12:17:57;0;0;0
86041;PMS7003;76639;53.064;18.818;2024-02-23T12:21:12;0;0;0
86041;PMS7003;76639;53.064;18.818;2024-02-23T12:24:25;0;0;0
86041;PMS7003;76639;53.064;18.818;2024-02-23T12:27:38;0;0;0
86041;PMS7003;76639;53.064;18.818;2024-02-23T12:30:58;0;0;0
86041;PMS7003;76639;53.064;18.818;2024-02-23T12:34:11;0;0;0
86041;PMS7003;76639;53.064;18.818;2024-02-23T12:37:34;2;0;0
86041;PMS7003;76639;53.064;18.818;2024-02-23T12:40:48;0;0;0
86041;PMS7003;76639;53.064;18.818;2024-02-23T12:44:01;0;0;0
86041;PMS7003;76639;53.064;18.818;2024-02-23T12:47:14;0;0;0
86041;PMS7003;76639;53.064;18.818;2024-02-23T12:50:29;0;0;0
86041;PMS7003;76639;53.064;18.818;2024-02-23T12:53:46;0;0;0
86041;PMS7003;76639;53.064;18.818;2024-02-23T12:56:58;0;0;0
86041;PMS7003;76639;53.064;18.818;2024-02-23T13:00:11;0;0;0
86041;PMS7003;76639;53.064;18.818;2024-02-23T13:03:25;0;0;0
86041;PMS7003;76639;53.064;18.818;2024-02-23T13:06:38;0;0;0
86041;PMS7003;76639;53.064;18.818;2024-02-23T13:09:50;0;0;0
86041;PMS7003;76639;53.064;18.818;2024-02-23T13:13:03;0;0;0
86041;PMS7003;76639;53.064;18.818;2024-02-23T13:16:17;0;0;0
86041;PMS7003;76639;53.064;18.818;2024-02-23T13:19:30;0;0;0
86041;PMS7003;76639;53.064;18.818;2024-02-23T13:22:42;0;0;0
86041;PMS7003;76639;53.064;18.818;2024-02-23T13:25:54;0;0;0
86041;PMS7003;76639;53.064;18.818;2024-02-23T13:29:09;0;0;0
86041;PMS7003;76639;53.064;18.818;2024-02-23T13:32:21;0;0;0
86041;PMS7003;76639;53.064;18.818;2024-02-23T13:35:34;0;0;0
86041;PMS7003;76639;53.064;18.818;2024-02-23T13:38:46;0;0;0
86041;PMS7003;76639;53.064;18.818;2024-02-23T13:41:58;0;0;0
86041;PMS7003;76639;53.064;18.818;2024-02-23T13:45:13;0;0;0
86041;PMS7003;76639;53.064;18.818;2024-02-23T13:48:27;0;0;0
86041;PMS7003;76639;53.064;18.818;2024-02-23T13:51:40;0;0;0
86041;PMS7003;76639;53.064;18.818;2024-02-23T13:54:52;0;0;0
86041;PMS7003;76639;53.064;18.818;2024-02-23T13:58:05;0;0;0
86041;PMS7003;76639;53.064;18.818;2024-02-23T14:01:18;0;0;0
86041;PMS7003;76639;53.064;18.818;2024-02-23T14:04:31;0;0;0
86041;PMS7003;76639;53.064;18.818;2024-02-23T14:07:43;0;0;0
86041;PMS7003;76639;53.064;18.818;2024-02-23T14:10:56;0;0;0
86041;PMS7003;76639;53.064;18.818;2024-02-23T14:14:12;0;0;0
86041;PMS7003;76639;53.064;18.818;2024-02-23T14:17:24;1;0;0
86041;PMS7003;76639;53.064;18.818;2024-02-23T14:20:38;0;0;0
86041;PMS7003;76639;53.064;18.818;2024-02-23T14:23:50;0;0;0
86041;PMS7003;76639;53.064;18.818;2024-02-23T14:27:03;0;0;0
86041;PMS7003;76639;53.064;18.818;2024-02-23T14:30:16;0;0;0
86041;PMS7003;76639;53.064;18.818;2024-02-23T14:33:28;0;0;0
86041;PMS7003;76639;53.064;18.818;2024-02-23T14:36:41;0;0;0
86041;PMS7003;76639;53.064;18.818;2024-02-23T14:39:54;0;0;0
86041;PMS7003;76639;53.064;18.818;2024-02-23T14:43:06;0;0;0
86041;PMS7003;76639;53.064;18.818;2024-02-23T14:46:21;0;0;0
86041;PMS7003;76639;53.064;18.818;2024-02-23T14:49:34;0;0;0
86041;PMS7003;76639;53.064;18.818;2024-02-23T14:52:46;0;0;0
86041;PMS7003;76639;53.064;18.818;2024-02-23T14:55:59;0;0;0
86041;PMS7003;76639;53.064;18.818;2024-02-23T14:59:12;0;0;0
86041;PMS7003;76639;53.064;18.818;2024-02-23T15:02:25;11;10;7
86041;PMS7003;76639;53.064;18.818;2024-02-23T15:05:37;6;4;3
86041;PMS7003;76639;53.064;18.818;2024-02-23T15:08:50;0;0;0
86041;PMS7003;76639;53.064;18.818;2024-02-23T15:12:04;5;3;3
86041;PMS7003;76639;53.064;18.818;2024-02-23T15:15:18;11;9;7
86041;PMS7003;76639;53.064;18.818;2024-02-23T15:18:31;2;0;0
86041;PMS7003;76639;53.064;18.818;2024-02-23T15:21:43;4;0;0
86041;PMS7003;76639;53.064;18.818;2024-02-23T15:24:58;5;3;2
86041;PMS7003;76639;53.064;18.818;2024-02-23T15:28:12;1;0;0
86041;PMS7003;76639;53.064;18.818;2024-02-23T15:31:27;0;0;0
86041;PMS7003;76639;53.064;18.818;2024-02-23T15:34:40;0;0;0
86041;PMS7003;76639;53.064;18.818;2024-02-23T15:37:53;0;0;0
86041;PMS7003;76639;53.064;18.818;2024-02-23T15:41:05;24;19;13
86041;PMS7003;76639;53.064;18.818;2024-02-23T15:44:18;31;17;12
86041;PMS7003;76639;53.064;18.818;2024-02-23T15:47:30;27;21;11
86041;PMS7003;76639;53.064;18.818;2024-02-23T15:50:43;39;26;14
86041;PMS7003;76639;53.064;18.818;2024-02-23T15:53:55;28;22;13
86041;PMS7003;76639;53.064;18.818;2024-02-23T15:57:08;12;9;6
86041;PMS7003;76639;53.064;18.818;2024-02-23T16:00:21;8;8;6
86041;PMS7003;76639;53.064;18.818;2024-02-23T16:03:33;10;6;5
86041;PMS7003;76639;53.064;18.818;2024-02-23T16:06:45;2;1;1
86041;PMS7003;76639;53.064;18.818;2024-02-23T16:10:00;6;1;0
86041;PMS7003;76639;53.064;18.818;2024-02-23T16:13:26;0;0;0
86041;PMS7003;76639;53.064;18.818;2024-02-23T16:16:41;0;0;0
86041;PMS7003;76639;53.064;18.818;2024-02-23T16:19:54;0;0;0
86041;PMS7003;76639;53.064;18.818;2024-02-23T16:23:08;2;1;1
86041;PMS7003;76639;53.064;18.818;2024-02-23T16:26:35;0;0;0
86041;PMS7003;76639;53.064;18.818;2024-02-23T16:29:51;3;0;0
86041;PMS7003;76639;53.064;18.818;2024-02-23T16:33:09;4;1;1
86041;PMS7003;76639;53.064;18.818;2024-02-23T16:36:28;1;0;0
86041;PMS7003;76639;53.064;18.818;2024-02-23T16:39:54;2;0;0
86041;PMS7003;76639;53.064;18.818;2024-02-23T16:43:12;0;0;0
86041;PMS7003;76639;53.064;18.818;2024-02-23T16:46:31;0;0;0
86041;PMS7003;76639;53.064;18.818;2024-02-23T16:49:59;0;0;0
86041;PMS7003;76639;53.064;18.818;2024-02-23T16:53:20;0;0;0
86041;PMS7003;76639;53.064;18.818;2024-02-23T16:56:43;0;0;0
86041;PMS7003;76639;53.064;18.818;2024-02-23T17:00:04;0;0;0
86041;PMS7003;76639;53.064;18.818;2024-02-23T17:03:24;0;0;0
86041;PMS7003;76639;53.064;18.818;2024-02-23T17:06:42;0;0;0
86041;PMS7003;76639;53.064;18.818;2024-02-23T17:10:10;1;0;0
86041;PMS7003;76639;53.064;18.818;2024-02-23T17:13:31;1;0;0
86041;PMS7003;76639;53.064;18.818;2024-02-23T17:16:48;1;1;0
86041;PMS7003;76639;53.064;18.818;2024-02-23T17:20:05;1;0;0
86041;PMS7003;76639;53.064;18.818;2024-02-23T17:23:29;0;0;0
86041;PMS7003;76639;53.064;18.818;2024-02-23T17:26:47;2;2;1
86041;PMS7003;76639;53.064;18.818;2024-02-23T17:30:07;6;1;1
86041;PMS7003;76639;53.064;18.818;2024-02-23T17:33:25;2;1;1
86041;PMS7003;76639;53.064;18.818;2024-02-23T17:40:23;8;5;3
86041;PMS7003;76639;53.064;18.818;2024-02-23T17:43:41;3;3;2
86041;PMS7003;76639;53.064;18.818;2024-02-23T17:46:55;6;3;2
86041;PMS7003;76639;53.064;18.818;2024-02-23T17:50:10;4;3;2
86041;PMS7003;76639;53.064;18.818;2024-02-23T17:53:30;4;3;3
86041;PMS7003;76639;53.064;18.818;2024-02-23T17:56:46;4;3;2
86041;PMS7003;76639;53.064;18.818;2024-02-23T18:00:07;3;3;2
86041;PMS7003;76639;53.064;18.818;2024-02-23T18:03:31;9;5;4
86041;PMS7003;76639;53.064;18.818;2024-02-23T18:07:03;3;2;1
86041;PMS7003;76639;53.064;18.818;2024-02-23T18:10:34;3;2;1
86041;PMS7003;76639;53.064;18.818;2024-02-23T18:14:05;4;3;3
86041;PMS7003;76639;53.064;18.818;2024-02-23T18:17:37;8;3;2
86041;PMS7003;76639;53.064;18.818;2024-02-23T18:21:11;2;2;2
86041;PMS7003;76639;53.064;18.818;2024-02-23T18:24:42;5;3;2
86041;PMS7003;76639;53.064;18.818;2024-02-23T18:28:04;6;3;2
86041;PMS7003;76639;53.064;18.818;2024-02-23T18:31:22;3;3;2
86041;PMS7003;76639;53.064;18.818;2024-02-23T18:34:44;2;2;1
86041;PMS7003;76639;53.064;18.818;2024-02-23T18:38:11;2;2;2
86041;PMS7003;76639;53.064;18.818;2024-02-23T18:41:36;9;5;3
86041;PMS7003;76639;53.064;18.818;2024-02-23T18:44:56;8;6;4
86041;PMS7003;76639;53.064;18.818;2024-02-23T18:48:13;3;3;3
86041;PMS7003;76639;53.064;18.818;2024-02-23T18:51:36;7;3;2
86041;PMS7003;76639;53.064;18.818;2024-02-23T18:54:57;7;4;4
86041;PMS7003;76639;53.064;18.818;2024-02-23T18:58:27;6;3;2
86041;PMS7003;76639;53.064;18.818;2024-02-23T19:01:43;3;3;3
86041;PMS7003;76639;53.064;18.818;2024-02-23T19:05:00;7;3;3
86041;PMS7003;76639;53.064;18.818;2024-02-23T19:08:24;7;4;4
86041;PMS7003;76639;53.064;18.818;2024-02-23T19:11:49;6;3;2
86041;PMS7003;76639;53.064;18.818;2024-02-23T19:15:15;5;4;4
86041;PMS7003;76639;53.064;18.818;2024-02-23T19:18:32;5;3;2
86041;PMS7003;76639;53.064;18.818;2024-02-23T19:21:53;3;2;2
86041;PMS7003;76639;53.064;18.818;2024-02-23T19:25:14;19;10;6
86041;PMS7003;76639;53.064;18.818;2024-02-23T19:28:37;2;1;1
86041;PMS7003;76639;53.064;18.818;2024-02-23T19:32:08;2;2;1
86041;PMS7003;76639;53.064;18.818;2024-02-23T19:35:40;1;1;0
86041;PMS7003;76639;53.064;18.818;2024-02-23T19:39:14;2;0;0
86041;PMS7003;76639;53.064;18.818;2024-02-23T19:42:43;0;0;0
86041;PMS7003;76639;53.064;18.818;2024-02-23T19:46:00;0;0;0
86041;PMS7003;76639;53.064;18.818;2024-02-23T19:49:21;0;0;0
86041;PMS7003;76639;53.064;18.818;2024-02-23T19:52:40;0;0;0
86041;PMS7003;76639;53.064;18.818;2024-02-23T19:56:04;1;1;1
86041;PMS7003;76639;53.064;18.818;2024-02-23T19:59:36;0;0;0
86041;PMS7003;76639;53.064;18.818;2024-02-23T20:03:04;3;2;1
86041;PMS7003;76639;53.064;18.818;2024-02-23T20:06:16;4;1;1
86041;PMS7003;76639;53.064;18.818;2024-02-23T20:09:29;2;1;1
86041;PMS7003;76639;53.064;18.818;2024-02-23T20:12:41;2;0;0
86041;PMS7003;76639;53.064;18.818;2024-02-23T20:15:57;5;4;2
86041;PMS7003;76639;53.064;18.818;2024-02-23T20:19:09;3;0;0
86041;PMS7003;76639;53.064;18.818;2024-02-23T20:22:21;0;0;0
86041;PMS7003;76639;53.064;18.818;2024-02-23T20:25:34;1;0;0
86041;PMS7003;76639;53.064;18.818;2024-02-23T20:28:49;0;0;0
86041;PMS7003;76639;53.064;18.818;2024-02-23T20:32:01;0;0;0
86041;PMS7003;76639;53.064;18.818;2024-02-23T20:35:15;0;0;0
86041;PMS7003;76639;53.064;18.818;2024-02-23T20:38:28;0;0;0
